sensor_id;sensor_type;location;lat;lon;timestamp;P1;durP1;ratioP1;P2;durP2;ratioP2
31128;SDS011;17777;48.770;8.944;2022-07-29T00:00:08;1.67;;;1.58;;
31128;SDS011;17777;48.770;8.944;2022-07-29T00:02:36;2.03;;;1.70;;
31128;SDS011;17777;48.770;8.944;2022-07-29T00:05:02;2.45;;;1.88;;
31128;SDS011;17777;48.770;8.944;2022-07-29T00:07:29;2.30;;;1.55;;
31128;SDS011;17777;48.770;8.944;2022-07-29T00:09:56;3.30;;;2.10;;
31128;SDS011;17777;48.770;8.944;2022-07-29T00:12:22;2.20;;;1.80;;
31128;SDS011;17777;48.770;8.944;2022-07-29T00:14:50;4.15;;;2.05;;
31128;SDS011;17777;48.770;8.944;2022-07-29T00:17:17;1.95;;;1.77;;
31128;SDS011;17777;48.770;8.944;2022-07-29T00:19:42;2.47;;;1.60;;
31128;SDS011;17777;48.770;8.944;2022-07-29T00:22:08;1.70;;;1.60;;
31128;SDS011;17777;48.770;8.944;2022-07-29T00:24:34;2.20;;;2.00;;
31128;SDS011;17777;48.770;8.944;2022-07-29T00:27:00;2.00;;;1.80;;
31128;SDS011;17777;48.770;8.944;2022-07-29T00:29:26;2.42;;;1.77;;
31128;SDS011;17777;48.770;8.944;2022-07-29T00:31:51;2.63;;;1.80;;
31128;SDS011;17777;48.770;8.944;2022-07-29T00:34:17;2.45;;;1.58;;
31128;SDS011;17777;48.770;8.944;2022-07-29T00:37:02;1.83;;;1.50;;
31128;SDS011;17777;48.770;8.944;2022-07-29T00:39:28;4.13;;;1.88;;
31128;SDS011;17777;48.770;8.944;2022-07-29T00:41:54;2.88;;;1.90;;
31128;SDS011;17777;48.770;8.944;2022-07-29T00:44:20;3.67;;;2.00;;
31128;SDS011;17777;48.770;8.944;2022-07-29T00:46:45;2.20;;;2.00;;
31128;SDS011;17777;48.770;8.944;2022-07-29T00:49:12;1.90;;;1.73;;
31128;SDS011;17777;48.770;8.944;2022-07-29T00:51:38;2.08;;;1.88;;
31128;SDS011;17777;48.770;8.944;2022-07-29T00:54:04;2.30;;;2.03;;
31128;SDS011;17777;48.770;8.944;2022-07-29T00:56:32;2.25;;;2.05;;
31128;SDS011;17777;48.770;8.944;2022-07-29T00:58:58;1.92;;;1.70;;
31128;SDS011;17777;48.770;8.944;2022-07-29T01:01:25;2.80;;;2.17;;
31128;SDS011;17777;48.770;8.944;2022-07-29T01:03:52;1.77;;;1.67;;
31128;SDS011;17777;48.770;8.944;2022-07-29T01:06:18;2.20;;;2.00;;
31128;SDS011;17777;48.770;8.944;2022-07-29T01:08:45;2.42;;;1.92;;
31128;SDS011;17777;48.770;8.944;2022-07-29T01:11:12;5.13;;;2.20;;
31128;SDS011;17777;48.770;8.944;2022-07-29T01:13:41;2.25;;;1.90;;
31128;SDS011;17777;48.770;8.944;2022-07-29T01:16:21;3.92;;;1.85;;
31128;SDS011;17777;48.770;8.944;2022-07-29T01:18:52;1.85;;;1.73;;
31128;SDS011;17777;48.770;8.944;2022-07-29T01:29:29;1.92;;;1.77;;
31128;SDS011;17777;48.770;8.944;2022-07-29T01:32:03;1.67;;;1.58;;
31128;SDS011;17777;48.770;8.944;2022-07-29T01:37:27;1.80;;;1.58;;
31128;SDS011;17777;48.770;8.944;2022-07-29T01:40:03;4.00;;;2.03;;
31128;SDS011;17777;48.770;8.944;2022-07-29T01:42:44;1.77;;;1.67;;
31128;SDS011;17777;48.770;8.944;2022-07-29T01:45:18;2.00;;;1.67;;
31128;SDS011;17777;48.770;8.944;2022-07-29T01:50:46;2.00;;;1.80;;
31128;SDS011;17777;48.770;8.944;2022-07-29T01:53:18;2.65;;;2.17;;
31128;SDS011;17777;48.770;8.944;2022-07-29T01:56:00;2.20;;;1.90;;
31128;SDS011;17777;48.770;8.944;2022-07-29T01:58:29;2.10;;;1.90;;
31128;SDS011;17777;48.770;8.944;2022-07-29T02:00:57;2.13;;;1.85;;
31128;SDS011;17777;48.770;8.944;2022-07-29T02:03:25;3.25;;;1.95;;
31128;SDS011;17777;48.770;8.944;2022-07-29T02:05:52;1.63;;;1.50;;
31128;SDS011;17777;48.770;8.944;2022-07-29T02:08:20;2.25;;;1.90;;
31128;SDS011;17777;48.770;8.944;2022-07-29T02:11:03;1.95;;;1.60;;
31128;SDS011;17777;48.770;8.944;2022-07-29T02:13:32;1.60;;;1.50;;
31128;SDS011;17777;48.770;8.944;2022-07-29T02:16:01;2.70;;;1.90;;
31128;SDS011;17777;48.770;8.944;2022-07-29T02:18:30;3.20;;;1.77;;
31128;SDS011;17777;48.770;8.944;2022-07-29T02:20:57;2.17;;;1.92;;
31128;SDS011;17777;48.770;8.944;2022-07-29T02:23:25;3.15;;;2.03;;
31128;SDS011;17777;48.770;8.944;2022-07-29T02:25:52;2.15;;;1.77;;
31128;SDS011;17777;48.770;8.944;2022-07-29T02:28:22;4.47;;;1.83;;
31128;SDS011;17777;48.770;8.944;2022-07-29T02:30:50;2.03;;;1.80;;
31128;SDS011;17777;48.770;8.944;2022-07-29T02:33:18;2.05;;;1.80;;
31128;SDS011;17777;48.770;8.944;2022-07-29T02:35:45;2.00;;;1.75;;
31128;SDS011;17777;48.770;8.944;2022-07-29T02:38:13;3.35;;;2.30;;
31128;SDS011;17777;48.770;8.944;2022-07-29T02:41:01;4.15;;;1.75;;
31128;SDS011;17777;48.770;8.944;2022-07-29T02:43:31;2.15;;;1.67;;
31128;SDS011;17777;48.770;8.944;2022-07-29T02:46:00;4.32;;;2.00;;
31128;SDS011;17777;48.770;8.944;2022-07-29T02:48:33;1.70;;;1.60;;
31128;SDS011;17777;48.770;8.944;2022-07-29T02:51:23;1.70;;;1.60;;
31128;SDS011;17777;48.770;8.944;2022-07-29T02:53:56;1.70;;;1.50;;
31128;SDS011;17777;48.770;8.944;2022-07-29T02:56:25;1.85;;;1.58;;
31128;SDS011;17777;48.770;8.944;2022-07-29T02:58:54;1.73;;;1.60;;
31128;SDS011;17777;48.770;8.944;2022-07-29T03:01:23;2.05;;;1.63;;
31128;SDS011;17777;48.770;8.944;2022-07-29T03:03:53;1.77;;;1.35;;
31128;SDS011;17777;48.770;8.944;2022-07-29T03:06:20;1.55;;;1.27;;
31128;SDS011;17777;48.770;8.944;2022-07-29T03:08:48;2.08;;;1.30;;
31128;SDS011;17777;48.770;8.944;2022-07-29T03:11:15;2.45;;;1.15;;
31128;SDS011;17777;48.770;8.944;2022-07-29T03:13:42;1.55;;;1.23;;
31128;SDS011;17777;48.770;8.944;2022-07-29T03:16:09;0.95;;;0.95;;
31128;SDS011;17777;48.770;8.944;2022-07-29T03:18:36;1.13;;;1.00;;
31128;SDS011;17777;48.770;8.944;2022-07-29T03:21:03;1.77;;;1.23;;
31128;SDS011;17777;48.770;8.944;2022-07-29T03:23:29;1.35;;;1.20;;
31128;SDS011;17777;48.770;8.944;2022-07-29T03:25:55;0.93;;;0.93;;
31128;SDS011;17777;48.770;8.944;2022-07-29T03:28:22;1.27;;;1.17;;
31128;SDS011;17777;48.770;8.944;2022-07-29T03:30:48;2.15;;;1.27;;
31128;SDS011;17777;48.770;8.944;2022-07-29T03:33:15;1.13;;;1.02;;
31128;SDS011;17777;48.770;8.944;2022-07-29T03:35:41;1.23;;;1.10;;
31128;SDS011;17777;48.770;8.944;2022-07-29T03:38:07;0.85;;;0.70;;
31128;SDS011;17777;48.770;8.944;2022-07-29T03:40:45;1.10;;;0.95;;
31128;SDS011;17777;48.770;8.944;2022-07-29T03:43:17;0.80;;;0.80;;
31128;SDS011;17777;48.770;8.944;2022-07-29T03:45:45;1.65;;;0.85;;
31128;SDS011;17777;48.770;8.944;2022-07-29T03:48:15;1.08;;;0.90;;
31128;SDS011;17777;48.770;8.944;2022-07-29T03:50:46;1.25;;;0.93;;
31128;SDS011;17777;48.770;8.944;2022-07-29T03:53:12;1.10;;;1.00;;
31128;SDS011;17777;48.770;8.944;2022-07-29T03:55:43;1.00;;;0.98;;
31128;SDS011;17777;48.770;8.944;2022-07-29T03:58:12;0.90;;;0.80;;
31128;SDS011;17777;48.770;8.944;2022-07-29T04:00:40;1.60;;;1.23;;
31128;SDS011;17777;48.770;8.944;2022-07-29T04:03:07;1.25;;;1.15;;
31128;SDS011;17777;48.770;8.944;2022-07-29T04:05:34;1.60;;;0.98;;
31128;SDS011;17777;48.770;8.944;2022-07-29T04:08:00;1.20;;;1.10;;
31128;SDS011;17777;48.770;8.944;2022-07-29T04:10:26;2.50;;;1.15;;
31128;SDS011;17777;48.770;8.944;2022-07-29T04:12:51;1.60;;;1.10;;
31128;SDS011;17777;48.770;8.944;2022-07-29T04:15:18;1.40;;;1.30;;
31128;SDS011;17777;48.770;8.944;2022-07-29T04:17:44;0.90;;;0.90;;
31128;SDS011;17777;48.770;8.944;2022-07-29T04:20:10;1.30;;;1.17;;
31128;SDS011;17777;48.770;8.944;2022-07-29T04:22:39;1.45;;;1.17;;
31128;SDS011;17777;48.770;8.944;2022-07-29T04:25:06;1.30;;;1.20;;
31128;SDS011;17777;48.770;8.944;2022-07-29T04:27:32;1.23;;;1.13;;
31128;SDS011;17777;48.770;8.944;2022-07-29T04:29:58;1.25;;;1.00;;
31128;SDS011;17777;48.770;8.944;2022-07-29T04:32:24;1.10;;;1.08;;
31128;SDS011;17777;48.770;8.944;2022-07-29T04:34:51;1.30;;;1.20;;
31128;SDS011;17777;48.770;8.944;2022-07-29T04:37:16;1.77;;;1.10;;
31128;SDS011;17777;48.770;8.944;2022-07-29T04:39:42;1.20;;;1.10;;
31128;SDS011;17777;48.770;8.944;2022-07-29T04:42:08;1.88;;;1.27;;
31128;SDS011;17777;48.770;8.944;2022-07-29T04:44:34;1.55;;;1.20;;
31128;SDS011;17777;48.770;8.944;2022-07-29T04:47:00;1.83;;;1.40;;
31128;SDS011;17777;48.770;8.944;2022-07-29T04:49:26;4.18;;;1.30;;
31128;SDS011;17777;48.770;8.944;2022-07-29T04:51:52;1.45;;;1.30;;
31128;SDS011;17777;48.770;8.944;2022-07-29T04:54:18;1.75;;;1.45;;
31128;SDS011;17777;48.770;8.944;2022-07-29T04:56:44;1.90;;;1.33;;
31128;SDS011;17777;48.770;8.944;2022-07-29T04:59:11;1.40;;;1.10;;
31128;SDS011;17777;48.770;8.944;2022-07-29T05:01:37;1.30;;;1.20;;
31128;SDS011;17777;48.770;8.944;2022-07-29T05:04:03;1.77;;;1.23;;
31128;SDS011;17777;48.770;8.944;2022-07-29T05:06:32;1.40;;;1.30;;
31128;SDS011;17777;48.770;8.944;2022-07-29T05:08:57;1.60;;;1.30;;
31128;SDS011;17777;48.770;8.944;2022-07-29T05:11:23;1.52;;;1.30;;
31128;SDS011;17777;48.770;8.944;2022-07-29T05:13:49;1.60;;;1.00;;
31128;SDS011;17777;48.770;8.944;2022-07-29T05:16:15;1.33;;;1.17;;
31128;SDS011;17777;48.770;8.944;2022-07-29T05:18:41;2.20;;;1.50;;
31128;SDS011;17777;48.770;8.944;2022-07-29T05:21:07;1.23;;;1.08;;
31128;SDS011;17777;48.770;8.944;2022-07-29T05:23:33;1.85;;;1.50;;
31128;SDS011;17777;48.770;8.944;2022-07-29T05:25:58;2.75;;;1.38;;
31128;SDS011;17777;48.770;8.944;2022-07-29T05:28:24;1.77;;;1.40;;
31128;SDS011;17777;48.770;8.944;2022-07-29T05:30:50;1.30;;;1.20;;
31128;SDS011;17777;48.770;8.944;2022-07-29T05:33:16;1.48;;;1.38;;
31128;SDS011;17777;48.770;8.944;2022-07-29T05:35:42;1.67;;;1.38;;
31128;SDS011;17777;48.770;8.944;2022-07-29T05:38:07;2.28;;;1.45;;
31128;SDS011;17777;48.770;8.944;2022-07-29T05:40:33;2.25;;;1.50;;
31128;SDS011;17777;48.770;8.944;2022-07-29T05:42:59;1.58;;;1.48;;
31128;SDS011;17777;48.770;8.944;2022-07-29T05:45:25;2.47;;;1.60;;
31128;SDS011;17777;48.770;8.944;2022-07-29T05:47:51;1.48;;;1.23;;
31128;SDS011;17777;48.770;8.944;2022-07-29T05:50:16;1.33;;;1.23;;
31128;SDS011;17777;48.770;8.944;2022-07-29T05:52:42;3.50;;;1.73;;
31128;SDS011;17777;48.770;8.944;2022-07-29T05:55:08;1.70;;;1.60;;
31128;SDS011;17777;48.770;8.944;2022-07-29T05:57:34;1.88;;;1.35;;
31128;SDS011;17777;48.770;8.944;2022-07-29T06:00:00;2.03;;;1.60;;
31128;SDS011;17777;48.770;8.944;2022-07-29T06:02:26;3.50;;;1.48;;
31128;SDS011;17777;48.770;8.944;2022-07-29T06:04:52;2.03;;;1.60;;
31128;SDS011;17777;48.770;8.944;2022-07-29T06:07:18;2.42;;;1.55;;
31128;SDS011;17777;48.770;8.944;2022-07-29T06:09:44;2.20;;;1.27;;
31128;SDS011;17777;48.770;8.944;2022-07-29T06:12:10;1.90;;;1.80;;
31128;SDS011;17777;48.770;8.944;2022-07-29T06:14:36;1.60;;;1.40;;
31128;SDS011;17777;48.770;8.944;2022-07-29T06:17:03;2.78;;;1.42;;
31128;SDS011;17777;48.770;8.944;2022-07-29T06:19:30;2.63;;;1.73;;
31128;SDS011;17777;48.770;8.944;2022-07-29T06:21:56;2.58;;;1.70;;
31128;SDS011;17777;48.770;8.944;2022-07-29T06:24:22;1.48;;;1.38;;
31128;SDS011;17777;48.770;8.944;2022-07-29T06:26:48;2.83;;;1.60;;
31128;SDS011;17777;48.770;8.944;2022-07-29T06:29:14;2.17;;;1.50;;
31128;SDS011;17777;48.770;8.944;2022-07-29T06:31:40;3.17;;;1.60;;
31128;SDS011;17777;48.770;8.944;2022-07-29T06:34:06;3.80;;;1.90;;
31128;SDS011;17777;48.770;8.944;2022-07-29T06:36:35;2.15;;;1.40;;
31128;SDS011;17777;48.770;8.944;2022-07-29T06:39:05;2.17;;;1.60;;
31128;SDS011;17777;48.770;8.944;2022-07-29T06:41:32;4.95;;;1.70;;
31128;SDS011;17777;48.770;8.944;2022-07-29T06:44:07;1.80;;;1.48;;
31128;SDS011;17777;48.770;8.944;2022-07-29T06:46:33;4.53;;;1.77;;
31128;SDS011;17777;48.770;8.944;2022-07-29T06:48:59;6.25;;;2.28;;
31128;SDS011;17777;48.770;8.944;2022-07-29T06:51:26;2.97;;;1.80;;
31128;SDS011;17777;48.770;8.944;2022-07-29T06:53:52;2.58;;;1.40;;
31128;SDS011;17777;48.770;8.944;2022-07-29T06:56:18;3.25;;;1.50;;
31128;SDS011;17777;48.770;8.944;2022-07-29T06:58:44;1.48;;;1.30;;
31128;SDS011;17777;48.770;8.944;2022-07-29T07:01:09;2.22;;;1.38;;
31128;SDS011;17777;48.770;8.944;2022-07-29T07:03:35;2.40;;;1.52;;
31128;SDS011;17777;48.770;8.944;2022-07-29T07:06:01;1.75;;;1.50;;
31128;SDS011;17777;48.770;8.944;2022-07-29T07:08:28;1.88;;;1.45;;
31128;SDS011;17777;48.770;8.944;2022-07-29T07:10:54;1.88;;;1.58;;
31128;SDS011;17777;48.770;8.944;2022-07-29T07:13:21;4.13;;;1.85;;
31128;SDS011;17777;48.770;8.944;2022-07-29T07:15:48;2.90;;;2.00;;
31128;SDS011;17777;48.770;8.944;2022-07-29T07:18:15;1.85;;;1.52;;
31128;SDS011;17777;48.770;8.944;2022-07-29T07:20:42;2.80;;;1.48;;
31128;SDS011;17777;48.770;8.944;2022-07-29T07:23:08;2.47;;;1.58;;
31128;SDS011;17777;48.770;8.944;2022-07-29T07:25:34;1.50;;;1.40;;
31128;SDS011;17777;48.770;8.944;2022-07-29T07:28:00;3.65;;;1.45;;
31128;SDS011;17777;48.770;8.944;2022-07-29T07:30:27;2.60;;;1.73;;
31128;SDS011;17777;48.770;8.944;2022-07-29T07:32:53;1.85;;;1.63;;
31128;SDS011;17777;48.770;8.944;2022-07-29T07:35:20;3.20;;;1.60;;
31128;SDS011;17777;48.770;8.944;2022-07-29T07:37:46;2.08;;;1.40;;
31128;SDS011;17777;48.770;8.944;2022-07-29T07:40:13;2.67;;;1.70;;
31128;SDS011;17777;48.770;8.944;2022-07-29T07:42:40;1.58;;;1.48;;
31128;SDS011;17777;48.770;8.944;2022-07-29T07:45:06;1.50;;;1.40;;
31128;SDS011;17777;48.770;8.944;2022-07-29T07:47:36;1.63;;;1.40;;
31128;SDS011;17777;48.770;8.944;2022-07-29T07:50:08;3.25;;;2.10;;
31128;SDS011;17777;48.770;8.944;2022-07-29T07:52:45;2.38;;;2.00;;
31128;SDS011;17777;48.770;8.944;2022-07-29T07:55:20;1.80;;;1.70;;
31128;SDS011;17777;48.770;8.944;2022-07-29T07:57:46;1.50;;;1.40;;
31128;SDS011;17777;48.770;8.944;2022-07-29T08:00:12;1.98;;;1.55;;
31128;SDS011;17777;48.770;8.944;2022-07-29T08:02:41;2.67;;;1.52;;
31128;SDS011;17777;48.770;8.944;2022-07-29T08:05:08;3.08;;;1.70;;
31128;SDS011;17777;48.770;8.944;2022-07-29T08:07:35;4.03;;;1.70;;
31128;SDS011;17777;48.770;8.944;2022-07-29T08:10:01;2.30;;;1.63;;
31128;SDS011;17777;48.770;8.944;2022-07-29T08:12:28;4.43;;;1.80;;
31128;SDS011;17777;48.770;8.944;2022-07-29T08:14:54;2.35;;;2.05;;
31128;SDS011;17777;48.770;8.944;2022-07-29T08:17:19;1.77;;;1.60;;
31128;SDS011;17777;48.770;8.944;2022-07-29T08:19:45;2.25;;;1.63;;
31128;SDS011;17777;48.770;8.944;2022-07-29T08:22:13;3.25;;;1.63;;
31128;SDS011;17777;48.770;8.944;2022-07-29T08:24:39;3.33;;;1.50;;
31128;SDS011;17777;48.770;8.944;2022-07-29T08:27:08;1.95;;;1.75;;
31128;SDS011;17777;48.770;8.944;2022-07-29T08:29:38;1.63;;;1.27;;
31128;SDS011;17777;48.770;8.944;2022-07-29T08:32:07;2.42;;;1.45;;
31128;SDS011;17777;48.770;8.944;2022-07-29T08:34:39;1.70;;;1.52;;
31128;SDS011;17777;48.770;8.944;2022-07-29T08:37:05;1.65;;;1.35;;
31128;SDS011;17777;48.770;8.944;2022-07-29T08:39:30;1.60;;;1.20;;
31128;SDS011;17777;48.770;8.944;2022-07-29T08:41:56;2.28;;;1.70;;
31128;SDS011;17777;48.770;8.944;2022-07-29T08:44:23;2.65;;;1.67;;
31128;SDS011;17777;48.770;8.944;2022-07-29T08:46:49;3.53;;;1.77;;
31128;SDS011;17777;48.770;8.944;2022-07-29T08:49:15;1.77;;;1.60;;
31128;SDS011;17777;48.770;8.944;2022-07-29T08:51:42;2.95;;;1.33;;
31128;SDS011;17777;48.770;8.944;2022-07-29T08:54:09;1.67;;;1.50;;
31128;SDS011;17777;48.770;8.944;2022-07-29T08:56:36;2.67;;;1.77;;
31128;SDS011;17777;48.770;8.944;2022-07-29T08:59:04;4.78;;;1.77;;
31128;SDS011;17777;48.770;8.944;2022-07-29T09:01:32;3.65;;;1.60;;
31128;SDS011;17777;48.770;8.944;2022-07-29T09:04:03;1.98;;;1.70;;
31128;SDS011;17777;48.770;8.944;2022-07-29T09:06:36;1.80;;;1.60;;
31128;SDS011;17777;48.770;8.944;2022-07-29T09:09:07;1.60;;;1.50;;
31128;SDS011;17777;48.770;8.944;2022-07-29T09:11:33;5.30;;;1.50;;
31128;SDS011;17777;48.770;8.944;2022-07-29T09:14:00;1.40;;;1.30;;
31128;SDS011;17777;48.770;8.944;2022-07-29T09:16:30;1.95;;;1.50;;
31128;SDS011;17777;48.770;8.944;2022-07-29T09:19:24;2.30;;;1.47;;
31128;SDS011;17777;48.770;8.944;2022-07-29T09:21:53;2.77;;;1.83;;
31128;SDS011;17777;48.770;8.944;2022-07-29T09:24:22;2.75;;;1.70;;
31128;SDS011;17777;48.770;8.944;2022-07-29T09:27:19;3.67;;;1.70;;
31128;SDS011;17777;48.770;8.944;2022-07-29T09:29:55;2.80;;;1.80;;
31128;SDS011;17777;48.770;8.944;2022-07-29T09:32:53;2.80;;;1.40;;
31128;SDS011;17777;48.770;8.944;2022-07-29T09:35:23;3.08;;;1.77;;
31128;SDS011;17777;48.770;8.944;2022-07-29T09:37:51;3.15;;;1.98;;
31128;SDS011;17777;48.770;8.944;2022-07-29T09:40:18;2.40;;;1.50;;
31128;SDS011;17777;48.770;8.944;2022-07-29T09:42:50;2.57;;;1.57;;
31128;SDS011;17777;48.770;8.944;2022-07-29T09:47:59;1.73;;;1.23;;
31128;SDS011;17777;48.770;8.944;2022-07-29T09:50:41;1.65;;;1.50;;
31128;SDS011;17777;48.770;8.944;2022-07-29T09:53:09;3.22;;;1.38;;
31128;SDS011;17777;48.770;8.944;2022-07-29T09:56:09;2.38;;;1.45;;
31128;SDS011;17777;48.770;8.944;2022-07-29T09:58:31;1.42;;;1.20;;
31128;SDS011;17777;48.770;8.944;2022-07-29T10:01:00;2.70;;;1.52;;
31128;SDS011;17777;48.770;8.944;2022-07-29T10:03:28;2.50;;;1.60;;
31128;SDS011;17777;48.770;8.944;2022-07-29T10:06:04;1.20;;;1.10;;
31128;SDS011;17777;48.770;8.944;2022-07-29T10:08:31;4.30;;;1.75;;
31128;SDS011;17777;48.770;8.944;2022-07-29T10:11:13;1.90;;;1.42;;
31128;SDS011;17777;48.770;8.944;2022-07-29T10:16:10;1.98;;;1.58;;
31128;SDS011;17777;48.770;8.944;2022-07-29T10:18:38;2.15;;;1.55;;
31128;SDS011;17777;48.770;8.944;2022-07-29T10:21:06;1.80;;;1.20;;
31128;SDS011;17777;48.770;8.944;2022-07-29T10:23:32;2.42;;;1.40;;
31128;SDS011;17777;48.770;8.944;2022-07-29T10:26:00;6.53;;;1.95;;
31128;SDS011;17777;48.770;8.944;2022-07-29T10:28:27;5.18;;;2.22;;
31128;SDS011;17777;48.770;8.944;2022-07-29T10:31:02;2.17;;;1.75;;
31128;SDS011;17777;48.770;8.944;2022-07-29T10:33:41;3.30;;;1.88;;
31128;SDS011;17777;48.770;8.944;2022-07-29T10:42:18;2.20;;;2.00;;
31128;SDS011;17777;48.770;8.944;2022-07-29T10:44:49;2.85;;;2.13;;
31128;SDS011;17777;48.770;8.944;2022-07-29T10:47:20;3.95;;;2.45;;
31128;SDS011;17777;48.770;8.944;2022-07-29T10:50:04;5.55;;;2.53;;
31128;SDS011;17777;48.770;8.944;2022-07-29T10:55:36;3.78;;;2.45;;
31128;SDS011;17777;48.770;8.944;2022-07-29T10:58:14;2.80;;;1.73;;
31128;SDS011;17777;48.770;8.944;2022-07-29T11:00:40;4.37;;;2.13;;
31128;SDS011;17777;48.770;8.944;2022-07-29T11:03:06;4.63;;;1.95;;
31128;SDS011;17777;48.770;8.944;2022-07-29T11:05:51;4.45;;;2.40;;
31128;SDS011;17777;48.770;8.944;2022-07-29T11:08:19;5.72;;;2.88;;
31128;SDS011;17777;48.770;8.944;2022-07-29T11:10:48;4.90;;;2.63;;
31128;SDS011;17777;48.770;8.944;2022-07-29T11:13:44;2.72;;;2.13;;
31128;SDS011;17777;48.770;8.944;2022-07-29T11:16:11;6.68;;;2.40;;
31128;SDS011;17777;48.770;8.944;2022-07-29T11:21:35;2.47;;;2.20;;
31128;SDS011;17777;48.770;8.944;2022-07-29T11:24:15;3.72;;;2.53;;
31128;SDS011;17777;48.770;8.944;2022-07-29T11:27:12;4.13;;;2.30;;
31128;SDS011;17777;48.770;8.944;2022-07-29T11:29:51;5.18;;;2.60;;
31128;SDS011;17777;48.770;8.944;2022-07-29T11:32:20;5.20;;;2.95;;
31128;SDS011;17777;48.770;8.944;2022-07-29T11:34:49;5.97;;;3.80;;
31128;SDS011;17777;48.770;8.944;2022-07-29T11:37:36;7.30;;;3.60;;
31128;SDS011;17777;48.770;8.944;2022-07-29T11:45:07;3.85;;;2.92;;
31128;SDS011;17777;48.770;8.944;2022-07-29T11:47:41;7.72;;;3.90;;
31128;SDS011;17777;48.770;8.944;2022-07-29T11:50:11;4.07;;;3.25;;
31128;SDS011;17777;48.770;8.944;2022-07-29T11:52:48;4.75;;;3.22;;
31128;SDS011;17777;48.770;8.944;2022-07-29T11:55:18;6.95;;;3.42;;
31128;SDS011;17777;48.770;8.944;2022-07-29T11:57:57;4.97;;;3.00;;
31128;SDS011;17777;48.770;8.944;2022-07-29T12:03:00;3.80;;;2.38;;
31128;SDS011;17777;48.770;8.944;2022-07-29T12:08:07;3.78;;;2.22;;
31128;SDS011;17777;48.770;8.944;2022-07-29T12:10:46;3.35;;;2.35;;
31128;SDS011;17777;48.770;8.944;2022-07-29T12:13:16;3.00;;;2.17;;
31128;SDS011;17777;48.770;8.944;2022-07-29T12:15:54;4.68;;;2.88;;
31128;SDS011;17777;48.770;8.944;2022-07-29T12:18:22;3.38;;;2.55;;
31128;SDS011;17777;48.770;8.944;2022-07-29T12:20:48;4.68;;;2.40;;
31128;SDS011;17777;48.770;8.944;2022-07-29T12:23:29;2.95;;;2.20;;
31128;SDS011;17777;48.770;8.944;2022-07-29T12:25:58;4.35;;;2.20;;
31128;SDS011;17777;48.770;8.944;2022-07-29T12:28:25;2.85;;;2.17;;
31128;SDS011;17777;48.770;8.944;2022-07-29T12:30:51;2.47;;;2.28;;
31128;SDS011;17777;48.770;8.944;2022-07-29T12:35:52;3.15;;;2.30;;
31128;SDS011;17777;48.770;8.944;2022-07-29T12:38:24;3.08;;;2.22;;
31128;SDS011;17777;48.770;8.944;2022-07-29T12:40:51;3.63;;;2.25;;
31128;SDS011;17777;48.770;8.944;2022-07-29T12:43:19;3.40;;;2.05;;
31128;SDS011;17777;48.770;8.944;2022-07-29T12:45:51;3.42;;;2.20;;
31128;SDS011;17777;48.770;8.944;2022-07-29T12:48:35;6.50;;;2.08;;
31128;SDS011;17777;48.770;8.944;2022-07-29T12:51:04;2.42;;;1.80;;
31128;SDS011;17777;48.770;8.944;2022-07-29T12:53:34;2.47;;;1.90;;
31128;SDS011;17777;48.770;8.944;2022-07-29T12:56:01;3.03;;;1.90;;
31128;SDS011;17777;48.770;8.944;2022-07-29T12:58:35;3.72;;;1.92;;
31128;SDS011;17777;48.770;8.944;2022-07-29T13:01:13;2.15;;;1.90;;
31128;SDS011;17777;48.770;8.944;2022-07-29T13:04:23;5.93;;;2.28;;
31128;SDS011;17777;48.770;8.944;2022-07-29T13:06:36;2.63;;;1.88;;
31128;SDS011;17777;48.770;8.944;2022-07-29T13:14:31;4.25;;;2.28;;
31128;SDS011;17777;48.770;8.944;2022-07-29T13:17:06;2.72;;;1.65;;
31128;SDS011;17777;48.770;8.944;2022-07-29T13:19:51;3.05;;;2.05;;
31128;SDS011;17777;48.770;8.944;2022-07-29T13:22:29;1.88;;;1.73;;
31128;SDS011;17777;48.770;8.944;2022-07-29T13:24:59;2.15;;;1.70;;
31128;SDS011;17777;48.770;8.944;2022-07-29T13:27:32;2.85;;;1.80;;
31128;SDS011;17777;48.770;8.944;2022-07-29T13:30:00;1.90;;;1.63;;
31128;SDS011;17777;48.770;8.944;2022-07-29T13:32:28;3.42;;;1.65;;
31128;SDS011;17777;48.770;8.944;2022-07-29T13:34:56;3.55;;;1.80;;
31128;SDS011;17777;48.770;8.944;2022-07-29T13:37:25;1.77;;;1.67;;
31128;SDS011;17777;48.770;8.944;2022-07-29T13:39:54;3.17;;;1.98;;
31128;SDS011;17777;48.770;8.944;2022-07-29T13:42:21;3.70;;;1.88;;
31128;SDS011;17777;48.770;8.944;2022-07-29T13:44:48;5.82;;;1.67;;
31128;SDS011;17777;48.770;8.944;2022-07-29T13:47:16;2.30;;;1.63;;
31128;SDS011;17777;48.770;8.944;2022-07-29T13:49:44;2.90;;;1.50;;
31128;SDS011;17777;48.770;8.944;2022-07-29T13:52:11;1.58;;;1.48;;
31128;SDS011;17777;48.770;8.944;2022-07-29T13:54:36;2.65;;;1.63;;
31128;SDS011;17777;48.770;8.944;2022-07-29T13:57:03;2.47;;;1.60;;
31128;SDS011;17777;48.770;8.944;2022-07-29T13:59:29;2.00;;;1.65;;
31128;SDS011;17777;48.770;8.944;2022-07-29T14:01:55;2.28;;;2.05;;
31128;SDS011;17777;48.770;8.944;2022-07-29T14:04:21;5.03;;;1.50;;
31128;SDS011;17777;48.770;8.944;2022-07-29T14:06:48;2.15;;;1.35;;
31128;SDS011;17777;48.770;8.944;2022-07-29T14:09:15;1.70;;;1.40;;
31128;SDS011;17777;48.770;8.944;2022-07-29T14:11:41;2.05;;;1.50;;
31128;SDS011;17777;48.770;8.944;2022-07-29T14:14:07;2.00;;;1.42;;
31128;SDS011;17777;48.770;8.944;2022-07-29T14:16:33;3.08;;;1.77;;
31128;SDS011;17777;48.770;8.944;2022-07-29T14:18:59;2.30;;;1.70;;
31128;SDS011;17777;48.770;8.944;2022-07-29T14:21:25;1.98;;;1.70;;
31128;SDS011;17777;48.770;8.944;2022-07-29T14:23:51;2.05;;;1.80;;
31128;SDS011;17777;48.770;8.944;2022-07-29T14:26:17;2.53;;;1.55;;
31128;SDS011;17777;48.770;8.944;2022-07-29T14:28:43;2.08;;;1.58;;
31128;SDS011;17777;48.770;8.944;2022-07-29T14:31:09;1.98;;;1.70;;
31128;SDS011;17777;48.770;8.944;2022-07-29T14:33:35;2.17;;;1.73;;
31128;SDS011;17777;48.770;8.944;2022-07-29T14:36:01;1.33;;;1.17;;
31128;SDS011;17777;48.770;8.944;2022-07-29T14:38:26;1.90;;;1.70;;
31128;SDS011;17777;48.770;8.944;2022-07-29T14:40:52;1.70;;;1.60;;
31128;SDS011;17777;48.770;8.944;2022-07-29T14:43:18;3.45;;;1.83;;
31128;SDS011;17777;48.770;8.944;2022-07-29T14:45:44;5.50;;;1.80;;
31128;SDS011;17777;48.770;8.944;2022-07-29T14:48:10;4.45;;;1.80;;
31128;SDS011;17777;48.770;8.944;2022-07-29T14:50:39;2.22;;;1.70;;
31128;SDS011;17777;48.770;8.944;2022-07-29T14:53:04;1.48;;;1.38;;
31128;SDS011;17777;48.770;8.944;2022-07-29T14:55:30;3.50;;;1.65;;
31128;SDS011;17777;48.770;8.944;2022-07-29T14:57:56;1.70;;;1.60;;
31128;SDS011;17777;48.770;8.944;2022-07-29T15:00:22;2.17;;;1.98;;
31128;SDS011;17777;48.770;8.944;2022-07-29T15:02:48;2.30;;;1.58;;
31128;SDS011;17777;48.770;8.944;2022-07-29T15:05:14;2.22;;;1.90;;
31128;SDS011;17777;48.770;8.944;2022-07-29T15:07:43;2.05;;;1.45;;
31128;SDS011;17777;48.770;8.944;2022-07-29T15:10:08;3.10;;;1.77;;
31128;SDS011;17777;48.770;8.944;2022-07-29T15:12:34;1.42;;;1.33;;
31128;SDS011;17777;48.770;8.944;2022-07-29T15:15:00;2.00;;;1.80;;
31128;SDS011;17777;48.770;8.944;2022-07-29T15:17:26;1.73;;;1.60;;
31128;SDS011;17777;48.770;8.944;2022-07-29T15:19:52;2.17;;;1.77;;
31128;SDS011;17777;48.770;8.944;2022-07-29T15:22:18;3.50;;;2.00;;
31128;SDS011;17777;48.770;8.944;2022-07-29T15:24:43;2.33;;;1.58;;
31128;SDS011;17777;48.770;8.944;2022-07-29T15:27:09;3.03;;;2.00;;
31128;SDS011;17777;48.770;8.944;2022-07-29T15:29:41;2.15;;;1.75;;
31128;SDS011;17777;48.770;8.944;2022-07-29T15:32:08;2.25;;;1.63;;
31128;SDS011;17777;48.770;8.944;2022-07-29T15:34:35;2.25;;;1.67;;
31128;SDS011;17777;48.770;8.944;2022-07-29T15:37:01;2.80;;;1.52;;
31128;SDS011;17777;48.770;8.944;2022-07-29T15:39:28;3.53;;;1.65;;
31128;SDS011;17777;48.770;8.944;2022-07-29T15:41:53;2.72;;;1.88;;
31128;SDS011;17777;48.770;8.944;2022-07-29T15:44:19;5.13;;;1.67;;
31128;SDS011;17777;48.770;8.944;2022-07-29T15:46:46;2.30;;;1.98;;